createdAt,value
2023-05-10T00:04:04.619Z,60
2023-05-10T00:16:04.533Z,60
2023-05-10T00:28:04.670Z,60
2023-05-10T00:40:04.651Z,60
2023-05-10T00:52:04.606Z,60
2023-05-10T01:04:04.573Z,60
2023-05-10T01:16:04.736Z,59.5
2023-05-10T01:28:04.692Z,59.5
2023-05-10T01:40:04.616Z,59.5
2023-05-10T01:52:04.633Z,60
2023-05-10T02:04:04.842Z,60
2023-05-10T02:16:04.716Z,60
2023-05-10T02:28:04.656Z,60
2023-05-10T02:40:04.628Z,60
2023-05-10T02:52:04.799Z,60
2023-05-10T03:04:04.759Z,60.5
2023-05-10T03:16:04.726Z,60.5
2023-05-10T03:28:04.683Z,60.5
2023-05-10T03:40:04.801Z,60.5
2023-05-10T03:52:04.889Z,60.5
2023-05-10T04:04:04.770Z,61
2023-05-10T04:16:04.912Z,61
2023-05-10T04:28:04.851Z,61
2023-05-10T04:40:04.825Z,61
2023-05-10T04:52:04.779Z,61
2023-05-10T05:04:04.935Z,61
2023-05-10T05:16:04.876Z,61
2023-05-10T05:28:04.857Z,61
2023-05-10T05:40:04.776Z,61
2023-05-10T05:52:05.025Z,61
2023-05-10T06:04:05.092Z,61
2023-05-10T06:16:04.902Z,61
2023-05-10T06:28:05.039Z,61
2023-05-10T06:40:04.994Z,61.5
2023-05-10T06:52:04.940Z,61.5
2023-05-10T07:04:04.901Z,62
2023-05-10T07:16:05.081Z,62
2023-05-10T07:28:05.046Z,62.5
2023-05-10T07:40:04.955Z,63
2023-05-10T07:52:04.940Z,63
2023-05-10T08:04:05.161Z,63
2023-05-10T08:16:05.179Z,63
2023-05-10T08:28:05.023Z,63
2023-05-10T08:40:04.970Z,62.5
2023-05-10T08:52:05.136Z,62
2023-05-10T09:04:05.246Z,61.5
2023-05-10T09:16:13.830Z,60.5
2023-05-10T09:28:05.254Z,59.5
2023-05-10T09:40:05.142Z,59
2023-05-10T09:52:05.210Z,59
2023-05-10T10:04:05.057Z,59.5
2023-05-10T10:16:05.322Z,59
2023-05-10T10:28:05.182Z,58.5
2023-05-10T10:40:05.173Z,59
2023-05-10T10:52:05.093Z,59.5
2023-05-10T11:04:05.376Z,59
2023-05-10T11:16:05.228Z,59
2023-05-10T11:28:05.193Z,57.5
2023-05-10T11:40:05.322Z,65.5
2023-05-10T11:52:05.368Z,68
2023-05-10T12:04:05.410Z,64.5
2023-05-10T12:16:05.871Z,54.5
2023-05-10T12:28:05.367Z,52.5
2023-05-10T12:40:05.342Z,52.5
2023-05-10T12:52:05.285Z,52
2023-05-10T13:04:05.338Z,50.5
2023-05-10T13:16:05.404Z,48.5
2023-05-10T13:28:05.386Z,48.5
2023-05-10T13:40:05.316Z,48.5
2023-05-10T13:52:05.499Z,49
2023-05-10T14:04:05.495Z,48.5
2023-05-10T14:16:05.438Z,47.5
2023-05-10T14:28:05.417Z,47.5
2023-05-10T14:40:05.588Z,47.5
2023-05-10T14:52:05.478Z,48.5
2023-05-10T15:04:05.485Z,49
2023-05-10T15:16:05.412Z,49.5
2023-05-10T15:28:05.575Z,51
2023-05-10T15:40:05.505Z,51.5
2023-05-10T15:52:05.486Z,53
2023-05-10T16:04:05.503Z,54
2023-05-10T16:16:05.476Z,55
2023-05-10T16:28:05.735Z,51
2023-05-10T16:40:05.706Z,48.5
2023-05-10T16:52:05.481Z,52.5
2023-05-10T17:04:05.767Z,55
2023-05-10T17:16:05.622Z,51
2023-05-10T17:28:05.585Z,49
2023-05-10T17:40:05.533Z,49
2023-05-10T17:52:05.705Z,49
2023-05-10T18:04:05.704Z,52
2023-05-10T18:16:05.646Z,54
2023-05-10T18:28:05.539Z,55.5
2023-05-10T18:40:05.752Z,56.5
2023-05-10T18:52:05.669Z,57.5
2023-05-10T19:04:05.703Z,58.5
2023-05-10T19:16:06.001Z,59.5
2023-05-10T19:28:05.756Z,60
2023-05-10T19:40:05.709Z,61
2023-05-10T19:52:05.664Z,61
2023-05-10T20:04:05.878Z,61.5
2023-05-10T20:16:05.802Z,62
2023-05-10T20:28:05.747Z,61.5
2023-05-10T20:40:05.747Z,60.5
2023-05-10T20:52:05.854Z,60.5
2023-05-10T21:04:05.841Z,60.5
2023-05-10T21:16:05.796Z,60.5
2023-05-10T21:28:06.039Z,61
2023-05-10T21:40:05.937Z,61
2023-05-10T21:52:05.987Z,61
2023-05-10T22:04:06.067Z,60.5
2023-05-10T22:16:05.867Z,60.5
2023-05-10T22:28:05.806Z,60.5
2023-05-10T22:40:06.509Z,60.5
2023-05-10T22:52:05.931Z,60.5
2023-05-10T23:04:05.894Z,60.5
2023-05-10T23:16:05.864Z,60.5
2023-05-10T23:28:06.005Z,60.5
2023-05-10T23:40:05.983Z,60.5
2023-05-10T23:52:05.933Z,60.5
